Time;durP1;ratioP1;P1;durP2;ratioP2;P2;SDS_P1;SDS_P2;PMS_P1;PMS_P2;Temp;Humidity;BMP_temperature;BMP_pressure;BME280_temperature;BME280_humidity;BME280_pressure;Samples;Min_cycle;Max_cycle;Signal;HPM_P1;HPM_P2
2020/12/04 07:04:49;;;;;;;28.80;15.50;;;-0.80;99.90;;;;;;5052282;28;20469;-87
2020/12/04 07:07:18;;;;;;;27.30;15.13;;;-0.70;99.90;;;;;;5051530;28;20449;-87
2020/12/04 07:17:14;;;;;;;45.23;27.90;;;-0.70;99.90;;;;;;5043846;28;20861;-86
2020/12/04 07:19:45;;;;;;;45.27;31.60;;;-0.50;99.90;;;;;;5036770;28;20454;-84
2020/12/04 07:22:14;;;;;;;32.93;21.13;;;1.80;99.90;;;;;;5033270;28;20446;-84
2020/12/04 07:24:41;;;;;;;27.10;16.33;;;2.60;99.90;;;;;;5032209;28;20440;-87
2020/12/04 07:27:08;;;;;;;25.73;16.57;;;3.00;99.90;;;;;;5031459;28;20450;-86
2020/12/04 07:29:39;;;;;;;31.63;20.33;;;3.10;99.90;;;;;;5031796;28;20538;-86
2020/12/04 07:32:06;;;;;;;37.67;26.60;;;3.30;99.90;;;;;;5031935;28;20431;-87
2020/12/04 07:34:36;;;;;;;68.90;43.57;;;2.90;99.90;;;;;;5031663;28;20558;-87
2020/12/04 07:37:04;;;;;;;47.53;31.00;;;2.30;99.90;;;;;;5032153;28;20423;-88
2020/12/04 07:39:33;;;;;;;28.30;19.50;;;1.80;99.90;;;;;;5031574;28;20428;-87
2020/12/04 07:42:02;;;;;;;34.77;22.07;;;1.30;99.90;;;;;;5031517;28;20444;-87
2020/12/04 07:44:31;;;;;;;26.53;17.23;;;0.90;99.90;;;;;;5030673;28;20439;-87
2020/12/04 07:47:02;;;;;;;40.57;20.83;;;0.70;99.90;;;;;;5031749;28;20730;-87
2020/12/04 07:49:31;;;;;;;53.97;28.70;;;0.40;99.90;;;;;;5031596;28;20430;-87
2020/12/04 07:52:09;;;;;;;39.30;23.43;;;0.20;99.90;;;;;;5031106;28;20506;-87
2020/12/04 07:54:37;;;;;;;39.10;22.40;;;0.10;99.90;;;;;;5037737;28;20505;-87
2020/12/04 07:57:05;;;;;;;33.77;17.53;;;-0.10;99.90;;;;;;5050992;28;20466;-87
2020/12/04 07:59:33;;;;;;;30.67;16.00;;;-0.20;99.90;;;;;;5047135;28;20794;-87
2020/12/04 08:02:00;;;;;;;31.30;18.60;;;-0.20;99.90;;;;;;5031157;28;20446;-87
2020/12/04 08:04:28;;;;;;;24.73;16.20;;;-0.20;99.90;;;;;;5031231;28;20432;-87
2020/12/04 08:07:06;;;;;;;28.70;16.40;;;-0.20;99.90;;;;;;5030593;28;20455;-87
2020/12/04 08:09:38;;;;;;;24.70;15.10;;;-0.10;99.90;;;;;;5031371;28;20466;-87
2020/12/04 08:12:10;;;;;;;28.87;19.57;;;0.00;99.90;;;;;;5031447;28;20444;-87
2020/12/04 08:14:38;;;;;;;24.50;15.67;;;0.00;99.90;;;;;;5031476;28;21005;-87
2020/12/04 08:17:06;;;;;;;33.33;18.53;;;0.00;99.90;;;;;;5036232;28;20436;-87
2020/12/04 08:19:34;;;;;;;29.37;16.57;;;0.10;99.90;;;;;;5030849;28;20431;-87
2020/12/04 08:22:03;;;;;;;27.80;16.47;;;0.10;99.90;;;;;;5030966;28;20443;-87
2020/12/04 08:24:32;;;;;;;34.97;20.60;;;0.10;99.90;;;;;;5030135;28;20440;-87
2020/12/04 08:27:11;;;;;;;46.00;27.10;;;0.10;99.90;;;;;;5030313;28;20447;-87
2020/12/04 08:29:41;;;;;;;29.90;17.80;;;-0.10;99.90;;;;;;5030772;28;20467;-87
2020/12/04 08:32:12;;;;;;;28.23;17.10;;;-0.10;99.90;;;;;;5031963;28;20833;-87
2020/12/04 08:34:39;;;;;;;32.83;21.30;;;-0.10;99.90;;;;;;5031892;28;21022;-88
2020/12/04 08:37:07;;;;;;;35.40;22.57;;;-0.20;99.90;;;;;;5032427;28;20424;-87
2020/12/04 08:39:36;;;;;;;28.07;17.63;;;-0.20;99.90;;;;;;5032170;28;20432;-88
2020/12/04 08:42:21;;;;;;;33.13;16.57;;;-0.20;99.90;;;;;;5032363;28;20436;-88
2020/12/04 08:44:58;;;;;;;32.63;17.30;;;-0.30;99.90;;;;;;5032242;28;20443;-88
2020/12/04 08:47:40;;;;;;;26.43;17.17;;;-0.30;99.90;;;;;;5032193;28;21094;-87
2020/12/04 08:50:16;;;;;;;26.03;15.83;;;-0.30;99.90;;;;;;5031360;28;20430;-86
2020/12/04 08:52:48;;;;;;;31.17;17.73;;;-0.30;99.90;;;;;;5030946;28;20475;-87
2020/12/04 08:55:17;;;;;;;31.10;16.67;;;-0.30;99.90;;;;;;5032573;28;20561;-87
2020/12/04 08:57:47;;;;;;;26.43;15.37;;;-0.30;99.90;;;;;;5032946;28;20522;-87
2020/12/04 09:00:16;;;;;;;25.90;16.60;;;-0.20;99.90;;;;;;5034462;28;20428;-87
2020/12/04 09:02:43;;;;;;;28.37;14.97;;;-0.20;99.90;;;;;;5034216;28;20451;-88
2020/12/04 09:05:12;;;;;;;30.07;17.67;;;-0.20;99.90;;;;;;5034273;28;20944;-88
2020/12/04 09:07:39;;;;;;;23.13;15.10;;;-0.10;99.90;;;;;;5034061;28;20531;-88
2020/12/04 09:10:07;;;;;;;30.40;17.30;;;-0.10;99.90;;;;;;5034057;28;20438;-87
2020/12/04 11:10:47;;;;;;;23.63;12.80;;;1.40;99.90;;;;;;5012451;28;20396;-88
2020/12/04 11:13:14;;;;;;;16.63;11.47;;;1.40;99.90;;;;;;5015491;28;20543;-90
2020/12/04 11:15:41;;;;;;;15.70;11.03;;;1.40;99.90;;;;;;5012893;28;20940;-90
2020/12/04 11:18:08;;;;;;;19.73;12.60;;;1.50;99.90;;;;;;5013144;28;20963;-89
2020/12/04 11:20:35;;;;;;;19.43;11.33;;;1.60;99.90;;;;;;5013106;28;20814;-90
2020/12/04 11:23:02;;;;;;;19.20;13.20;;;1.70;99.90;;;;;;5012695;28;20429;-90
2020/12/04 11:25:29;;;;;;;19.80;12.70;;;1.70;99.90;;;;;;5012729;28;20531;-89
2020/12/04 11:27:56;;;;;;;27.30;16.37;;;1.80;99.90;;;;;;5014468;28;20989;-90
2020/12/04 11:30:23;;;;;;;20.47;14.40;;;1.70;99.90;;;;;;5012714;28;20709;-89
2020/12/04 11:32:51;;;;;;;17.37;10.30;;;1.80;99.90;;;;;;5036462;28;20547;-89
